Time;durP1;ratioP1;P1;durP2;ratioP2;P2;SDS_P1;SDS_P2;PMS_P1;PMS_P2;Temp;Humidity;BMP_temperature;BMP_pressure;BME280_temperature;BME280_humidity;BME280_pressure;Samples;Min_cycle;Max_cycle;Signal;HPM_P1;HPM_P2
2021/05/29 00:00:14;;;;;;;19.23;11.45;;;;;;;7.94;100.00;96268.91;1038795;28;20033;-72
2021/05/29 00:00:45;;;;;;;23.58;10.23;;;;;;;7.86;100.00;96256.22;1030713;28;20053;-69
2021/05/29 00:01:19;;;;;;;13.52;10.07;;;;;;;7.90;100.00;96268.59;1030452;28;20283;-71
2021/05/29 00:01:49;;;;;;;11.88;9.77;;;;;;;7.92;100.00;96265.75;1022571;29;20390;-72
2021/05/29 00:02:19;;;;;;;14.20;9.93;;;;;;;7.92;100.00;96265.75;1030734;28;20053;-72
2021/05/29 00:02:50;;;;;;;21.35;10.73;;;;;;;7.91;100.00;96266.75;1031923;28;20030;-72
2021/05/29 00:03:21;;;;;;;16.77;10.48;;;;;;;7.92;100.00;96268.38;1026973;28;20062;-70
2021/05/29 00:03:52;;;;;;;15.80;10.50;;;;;;;7.90;100.00;96268.59;1030807;28;20034;-71
2021/05/29 00:04:22;;;;;;;15.77;9.93;;;;;;;7.89;100.00;96263.59;1034688;28;20260;-71
2021/05/29 00:04:52;;;;;;;15.05;10.10;;;;;;;7.90;100.00;96267.78;1030921;28;20069;-71
2021/05/29 00:05:23;;;;;;;11.80;9.48;;;;;;;7.90;100.00;96262.56;1034913;28;20033;-72
2021/05/29 00:05:53;;;;;;;12.43;8.57;;;;;;;7.86;100.00;96266.69;1034108;28;20022;-70
2021/05/29 00:06:24;;;;;;;14.20;9.98;;;;;;;7.90;100.00;96268.59;1033923;28;20033;-71
2021/05/29 00:06:54;;;;;;;10.63;8.35;;;;;;;7.90;100.00;96267.78;1038925;28;20029;-69
2021/05/29 00:07:25;;;;;;;13.02;8.73;;;;;;;7.89;100.00;96266.22;1038872;28;20099;-73
2021/05/29 00:07:55;;;;;;;10.00;8.00;;;;;;;7.90;100.00;96273.81;1037939;28;20037;-71
2021/05/29 00:08:26;;;;;;;13.10;7.43;;;;;;;7.89;100.00;96268.84;1030403;28;20049;-71
2021/05/29 00:08:56;;;;;;;9.35;7.57;;;;;;;7.88;100.00;96277.66;1030891;28;20034;-72
2021/05/29 00:09:26;;;;;;;9.35;7.57;;;;;;;7.87;100.00;96273.47;1034858;28;20423;-70
2021/05/29 00:09:57;;;;;;;12.13;7.63;;;;;;;7.80;100.00;96261.34;1034716;28;20076;-71
2021/05/29 00:10:27;;;;;;;9.68;7.70;;;;;;;7.86;100.00;96271.91;1030484;28;20034;-71
2021/05/29 00:10:58;;;;;;;9.98;7.68;;;;;;;7.86;100.00;96271.91;1030724;28;20029;-72
2021/05/29 00:11:29;;;;;;;10.82;6.90;;;;;;;7.78;100.00;96266.03;1032398;28;20099;-72
2021/05/29 00:11:59;;;;;;;10.90;7.80;;;;;;;7.85;100.00;96270.31;1031210;28;20339;-71
2021/05/29 00:12:30;;;;;;;12.18;7.55;;;;;;;7.86;100.00;96266.69;1030675;28;20626;-72
2021/05/29 00:13:00;;;;;;;9.45;7.57;;;;;;;7.87;100.00;96273.47;1026558;28;20031;-72
2021/05/29 00:13:31;;;;;;;9.10;7.28;;;;;;;7.80;100.00;96263.94;1030744;28;20022;-72
2021/05/29 00:14:02;;;;;;;7.88;6.40;;;;;;;7.88;100.00;96269.84;1031132;28;20129;-72
2021/05/29 00:14:34;;;;;;;7.53;6.68;;;;;;;7.83;100.00;96272.38;1034237;28;20026;-71
2021/05/29 00:15:05;;;;;;;8.00;6.50;;;;;;;7.82;100.00;96260.34;1034562;28;20316;-69
2021/05/29 00:15:36;;;;;;;8.00;6.70;;;;;;;7.90;100.00;96279.03;1031398;28;20264;-69
2021/05/29 00:16:09;;;;;;;8.98;6.60;;;;;;;7.85;100.00;96267.72;1029096;28;20296;-70
2021/05/29 00:16:39;;;;;;;9.13;6.90;;;;;;;7.85;100.00;96265.09;1034379;28;20526;-70
2021/05/29 00:17:10;;;;;;;8.65;6.38;;;;;;;7.85;100.00;96265.09;1030793;28;20289;-70
2021/05/29 00:17:40;;;;;;;7.45;6.18;;;;;;;7.91;100.00;96274.59;1034684;28;20097;-70
2021/05/29 00:18:11;;;;;;;10.52;7.15;;;;;;;7.92;100.00;96270.97;1038416;28;20574;-71
2021/05/29 00:18:41;;;;;;;7.05;6.35;;;;;;;7.92;100.00;96270.97;1042569;28;20624;-71
2021/05/29 00:19:12;;;;;;;6.82;6.10;;;;;;;7.91;100.00;96270.16;1034735;28;20033;-70
2021/05/29 00:19:42;;;;;;;7.40;5.57;;;;;;;7.89;100.00;96266.22;1031663;28;20474;-70
2021/05/29 00:20:13;;;;;;;6.40;5.63;;;;;;;7.91;100.00;96272.78;1030301;28;20516;-70
2021/05/29 00:20:43;;;;;;;7.72;5.82;;;;;;;7.94;100.00;96274.13;1026528;28;20133;-70
2021/05/29 00:21:14;;;;;;;11.73;6.05;;;;;;;7.94;100.00;96271.53;1026752;28;20019;-70
2021/05/29 00:21:44;;;;;;;7.47;6.22;;;;;;;7.93;100.00;96273.34;1022815;28;20486;-70
2021/05/29 00:22:15;;;;;;;7.25;5.88;;;;;;;7.94;100.00;96274.13;1030899;28;20675;-70
2021/05/29 00:22:45;;;;;;;6.82;5.07;;;;;;;7.94;100.00;96263.69;1030395;28;20325;-70
2021/05/29 00:23:16;;;;;;;7.53;5.60;;;;;;;7.95;100.00;96267.91;1030866;28;20029;-69
2021/05/29 00:23:46;;;;;;;6.65;5.78;;;;;;;7.95;100.00;96262.69;1030353;28;20579;-70
2021/05/29 00:24:16;;;;;;;7.32;6.03;;;;;;;7.90;100.00;96257.34;1026770;28;20027;-70
2021/05/29 00:24:47;;;;;;;6.57;5.38;;;;;;;7.94;100.00;96263.69;1034508;28;20499;-70
2021/05/29 00:25:17;;;;;;;7.28;5.63;;;;;;;7.96;100.00;96266.88;1034629;28;20018;-70
2021/05/29 00:25:48;;;;;;;7.90;6.05;;;;;;;7.95;100.00;96266.09;1021951;29;20031;-70
2021/05/29 00:26:18;;;;;;;7.18;5.80;;;;;;;7.94;100.00;96263.69;1022910;28;20039;-70
2021/05/29 00:26:49;;;;;;;6.35;5.53;;;;;;;7.95;100.00;96266.09;1026645;28;20075;-71
2021/05/29 00:27:19;;;;;;;7.50;4.95;;;;;;;7.94;100.00;96258.47;1034404;28;20022;-70
2021/05/29 00:27:50;;;;;;;5.95;4.75;;;;;;;7.91;100.00;96259.72;1026723;28;20023;-70
2021/05/29 00:28:20;;;;;;;7.55;5.50;;;;;;;7.97;100.00;96260.59;1026617;28;20022;-69
2021/05/29 00:28:51;;;;;;;6.85;5.45;;;;;;;7.98;100.00;96264.81;1024430;28;20027;-69
2021/05/29 00:29:22;;;;;;;7.32;6.03;;;;;;;7.97;100.00;96264.00;1035041;28;20026;-73
2021/05/29 00:29:52;;;;;;;8.55;5.22;;;;;;;7.98;100.00;96259.56;1034837;28;20272;-72
2021/05/29 00:30:23;;;;;;;7.25;6.28;;;;;;;7.98;100.00;96259.56;1034379;28;20033;-72
2021/05/29 00:30:53;;;;;;;6.50;5.82;;;;;;;7.99;100.00;96255.97;1034423;28;20014;-69
2021/05/29 00:31:24;;;;;;;7.05;6.25;;;;;;;7.99;100.00;96264.59;1034816;28;20029;-71
2021/05/29 00:31:54;;;;;;;8.55;5.78;;;;;;;7.70;100.00;96215.94;1039056;28;20017;-69
2021/05/29 00:32:25;;;;;;;6.65;5.95;;;;;;;8.00;100.00;96262.75;1038404;28;20474;-70
2021/05/29 00:32:56;;;;;;;7.32;6.07;;;;;;;7.99;100.00;96255.97;1042738;28;20017;-73
2021/05/29 00:33:26;;;;;;;6.60;4.90;;;;;;;7.90;100.00;96249.50;1038780;28;20029;-70
2021/05/29 00:33:57;;;;;;;6.47;5.78;;;;;;;7.99;100.00;96253.34;1026434;28;20270;-70
2021/05/29 00:34:27;;;;;;;6.25;5.65;;;;;;;8.00;100.00;96260.16;1026711;28;20074;-70
2021/05/29 00:35:00;;;;;;;9.40;6.40;;;;;;;7.90;100.00;96242.47;1022798;29;20362;-72
2021/05/29 00:35:31;;;;;;;8.07;5.78;;;;;;;7.95;100.00;96247.00;1021193;28;20057;-72
2021/05/29 00:36:01;;;;;;;8.57;5.38;;;;;;;7.92;100.00;96247.47;1026191;28;20290;-69
2021/05/29 00:36:32;;;;;;;6.47;5.80;;;;;;;7.90;100.00;96239.06;1018612;29;20024;-72
2021/05/29 00:37:02;;;;;;;6.40;5.40;;;;;;;7.96;100.00;96254.59;1018792;29;20106;-71
2021/05/29 00:37:33;;;;;;;11.75;5.82;;;;;;;7.97;100.00;96252.78;1026328;28;20065;-72
2021/05/29 00:38:04;;;;;;;10.18;6.07;;;;;;;7.87;100.00;96236.91;1026855;28;20038;-72
2021/05/29 00:38:35;;;;;;;7.45;6.18;;;;;;;7.99;100.00;96251.53;1027146;28;20038;-72
2021/05/29 00:39:06;;;;;;;6.55;5.35;;;;;;;7.89;100.00;96240.88;1031824;28;20332;-72
2021/05/29 00:39:36;;;;;;;5.90;4.90;;;;;;;7.89;100.00;96243.50;1026873;28;20675;-72
2021/05/29 00:40:07;;;;;;;5.90;4.90;;;;;;;7.92;100.00;96243.03;1029793;28;20281;-71
2021/05/29 00:40:38;;;;;;;7.78;5.53;;;;;;;8.00;100.00;96255.72;1029379;28;20101;-72
2021/05/29 00:41:08;;;;;;;7.80;6.00;;;;;;;8.00;100.00;96257.53;1038940;28;20318;-72
2021/05/29 00:41:39;;;;;;;7.55;5.90;;;;;;;8.00;100.00;96257.53;1035060;28;20030;-71
2021/05/29 00:42:09;;;;;;;6.45;5.38;;;;;;;8.04;100.00;96253.41;1034522;28;20040;-71
2021/05/29 00:42:40;;;;;;;7.00;5.40;;;;;;;8.03;100.00;96246.63;1039015;28;20061;-71
2021/05/29 00:43:10;;;;;;;7.20;5.70;;;;;;;8.04;100.00;96250.81;1034915;28;20033;-71
2021/05/29 00:43:41;;;;;;;7.20;6.45;;;;;;;8.06;100.00;96259.22;1030924;28;20088;-71
2021/05/29 00:44:13;;;;;;;7.20;5.88;;;;;;;8.05;100.00;96255.03;1037625;28;20030;-72
2021/05/29 00:44:51;;;;;;;7.10;5.88;;;;;;;8.00;100.00;96241.84;1034799;28;20025;-72
2021/05/29 00:45:21;;;;;;;8.27;5.97;;;;;;;8.05;100.00;96247.19;1030952;28;20265;-71
2021/05/29 00:45:52;;;;;;;9.65;6.47;;;;;;;8.06;100.00;96250.59;1021984;28;20267;-72
2021/05/29 00:46:22;;;;;;;8.75;6.03;;;;;;;8.04;100.00;96243.75;1025912;28;20027;-72
2021/05/29 00:46:52;;;;;;;7.70;6.07;;;;;;;8.02;100.00;96245.81;1031045;28;20030;-70
2021/05/29 00:47:24;;;;;;;11.10;6.75;;;;;;;8.03;100.00;96249.22;1042834;28;20017;-70
2021/05/29 00:47:55;;;;;;;8.30;5.78;;;;;;;8.02;100.00;96245.81;1038975;28;20581;-70
2021/05/29 00:48:26;;;;;;;12.30;7.25;;;;;;;7.99;100.00;96248.91;1026756;28;20899;-70
2021/05/29 00:48:56;;;;;;;9.82;6.68;;;;;;;7.97;100.00;96243.09;1030719;28;20332;-70
2021/05/29 00:49:27;;;;;;;8.05;6.03;;;;;;;7.93;100.00;96243.81;1030436;28;20073;-71
2021/05/29 00:50:03;;;;;;;7.63;5.70;;;;;;;7.91;100.00;96238.81;1031056;28;20026;-69
2021/05/29 00:50:33;;;;;;;7.32;6.00;;;;;;;7.93;100.00;96235.97;1030632;28;20559;-70
2021/05/29 00:51:04;;;;;;;8.75;6.35;;;;;;;7.94;100.00;96234.94;1030528;28;20356;-70
2021/05/29 00:51:37;;;;;;;12.93;6.97;;;;;;;7.99;100.00;96245.50;1026887;28;20392;-70
2021/05/29 00:52:07;;;;;;;8.00;6.07;;;;;;;7.99;100.00;96243.69;1019166;29;20433;-71
2021/05/29 00:52:38;;;;;;;8.55;6.18;;;;;;;7.99;100.00;96243.69;1025314;28;20251;-70
2021/05/29 00:53:08;;;;;;;7.68;6.70;;;;;;;8.00;100.00;96241.84;1031214;28;20134;-69
2021/05/29 00:53:39;;;;;;;9.88;7.18;;;;;;;7.95;100.00;96231.31;1030898;28;20026;-71
2021/05/29 00:54:10;;;;;;;11.70;7.60;;;;;;;8.03;100.00;96241.38;1034508;28;20042;-70
2021/05/29 00:54:41;;;;;;;11.07;7.38;;;;;;;8.00;100.00;96236.63;1030950;28;20130;-70
2021/05/29 00:55:14;;;;;;;8.98;7.43;;;;;;;8.02;100.00;96243.22;1022811;29;20031;-69
2021/05/29 00:55:44;;;;;;;9.48;7.88;;;;;;;8.02;100.00;96238.00;1026231;28;20815;-70
2021/05/29 00:56:15;;;;;;;11.05;7.90;;;;;;;8.03;100.00;96236.16;1026023;28;20274;-70
2021/05/29 00:56:45;;;;;;;9.13;8.23;;;;;;;8.01;100.00;96235.59;1027766;28;20030;-72
2021/05/29 00:57:16;;;;;;;10.95;8.48;;;;;;;8.02;100.00;96237.19;1030913;28;20038;-70
2021/05/29 00:57:48;;;;;;;12.73;7.88;;;;;;;8.03;100.00;96230.94;1033280;28;20035;-70
2021/05/29 00:58:19;;;;;;;10.55;7.53;;;;;;;8.03;100.00;96231.72;1038801;28;20030;-70
2021/05/29 00:58:50;;;;;;;10.95;7.22;;;;;;;8.01;100.00;96232.97;1034618;28;20316;-70
2021/05/29 00:59:20;;;;;;;8.38;6.93;;;;;;;8.03;100.00;96230.94;1029114;28;20281;-70
2021/05/29 00:59:50;;;;;;;8.82;7.32;;;;;;;8.03;100.00;96230.94;1030903;28;20018;-71
2021/05/29 01:00:22;;;;;;;10.55;7.47;;;;;;;8.02;100.00;96224.13;1022724;29;20042;-69
2021/05/29 01:00:52;;;;;;;9.73;7.85;;;;;;;8.03;100.00;96236.16;1030688;28;20022;-69
2021/05/29 01:01:23;;;;;;;9.60;7.90;;;;;;;8.04;100.00;96233.31;1038725;28;20272;-70
2021/05/29 01:01:53;;;;;;;9.25;7.90;;;;;;;8.03;100.00;96228.31;1035032;28;20030;-70
2021/05/29 01:02:24;;;;;;;8.77;7.22;;;;;;;7.97;100.00;96227.44;1034766;28;20029;-70
2021/05/29 01:02:54;;;;;;;10.85;6.32;;;;;;;7.97;100.00;96227.44;1034353;28;20026;-68
2021/05/29 01:03:25;;;;;;;9.05;7.35;;;;;;;8.00;100.00;96237.41;1035065;28;20030;-70
2021/05/29 01:03:55;;;;;;;9.75;7.25;;;;;;;8.00;100.00;96232.19;1034885;28;20464;-71
2021/05/29 01:04:26;;;;;;;9.30;7.65;;;;;;;8.01;100.00;96232.97;1034178;28;20388;-72
2021/05/29 01:04:56;;;;;;;7.95;7.15;;;;;;;8.01;100.00;96230.38;1035136;28;20025;-72
2021/05/29 01:05:27;;;;;;;8.77;7.32;;;;;;;8.02;100.00;96229.34;1038983;28;20017;-73
2021/05/29 01:05:57;;;;;;;7.40;6.60;;;;;;;7.96;100.00;96225.06;1042480;28;20225;-72
2021/05/29 01:06:27;;;;;;;7.57;6.88;;;;;;;8.02;100.00;96230.16;1026141;28;20027;-72
2021/05/29 01:06:58;;;;;;;7.85;7.05;;;;;;;8.00;100.00;96229.56;1026828;28;20026;-70
2021/05/29 01:07:28;;;;;;;8.65;6.72;;;;;;;8.03;100.00;96225.72;1026868;28;20027;-72
2021/05/29 01:07:59;;;;;;;8.48;7.15;;;;;;;7.93;100.00;96215.06;1029269;28;20054;-72
2021/05/29 01:08:29;;;;;;;11.50;7.85;;;;;;;8.01;100.00;96230.38;1026310;28;20034;-72
2021/05/29 01:09:00;;;;;;;10.02;6.95;;;;;;;7.94;100.00;96227.91;1027015;28;20026;-72
2021/05/29 01:09:30;;;;;;;10.65;7.85;;;;;;;8.00;100.00;96234.00;1025146;28;20027;-70
2021/05/29 01:10:02;;;;;;;9.35;6.82;;;;;;;7.99;100.00;96230.63;1023330;28;20034;-72
2021/05/29 01:10:33;;;;;;;8.63;7.70;;;;;;;7.97;100.00;96221.41;1030447;28;20481;-68
2021/05/29 01:11:03;;;;;;;9.05;7.75;;;;;;;7.99;100.00;96227.22;1026939;28;20274;-71
2021/05/29 01:11:34;;;;;;;9.70;8.05;;;;;;;8.00;100.00;96226.19;1030833;28;20031;-73
2021/05/29 01:12:05;;;;;;;12.82;8.95;;;;;;;8.01;100.00;96227.75;1034874;28;20026;-70
2021/05/29 01:12:36;;;;;;;12.98;8.45;;;;;;;8.00;100.00;96220.94;1030695;28;20114;-71
2021/05/29 01:13:07;;;;;;;13.07;9.13;;;;;;;8.01;100.00;96238.22;1026452;28;20281;-70
2021/05/29 01:13:38;;;;;;;11.73;8.77;;;;;;;7.94;100.00;96217.44;1026725;28;20030;-70
2021/05/29 01:14:09;;;;;;;12.57;9.13;;;;;;;8.01;100.00;96231.19;1033300;28;20284;-70
2021/05/29 01:14:46;;;;;;;11.95;9.07;;;;;;;8.02;100.00;96232.75;1034597;28;20171;-70
2021/05/29 01:15:18;;;;;;;13.30;9.80;;;;;;;8.01;100.00;96232.97;1033742;28;20085;-71
2021/05/29 01:15:49;;;;;;;14.35;10.45;;;;;;;7.92;100.00;96218.72;1035333;28;20655;-71
2021/05/29 01:17:08;;;;;;;16.58;9.13;;;;;;;8.02;100.00;96231.97;1034325;28;20296;-72
2021/05/29 01:17:39;;;;;;;14.05;9.05;;;;;;;8.01;100.00;96230.38;1034994;28;20280;-70
2021/05/29 01:18:11;;;;;;;10.70;9.18;;;;;;;8.00;100.00;96226.19;1029805;28;20026;-71
2021/05/29 01:18:41;;;;;;;11.18;8.57;;;;;;;8.00;100.00;96231.41;1033842;28;20305;-69
2021/05/29 01:19:12;;;;;;;10.75;8.60;;;;;;;8.00;100.00;96220.94;1034587;28;20285;-72
2021/05/29 01:19:43;;;;;;;11.43;8.75;;;;;;;8.00;100.00;96224.34;1035728;28;20053;-70
2021/05/29 01:20:13;;;;;;;11.77;9.00;;;;;;;8.02;100.00;96219.69;1032347;28;20278;-70
2021/05/29 01:20:45;;;;;;;12.52;9.27;;;;;;;7.96;100.00;96209.38;1034890;28;20022;-70
2021/05/29 01:21:15;;;;;;;10.40;8.68;;;;;;;8.02;100.00;96218.91;1026567;28;20166;-70
2021/05/29 01:21:47;;;;;;;10.68;8.90;;;;;;;8.02;100.00;96216.28;1027432;28;20297;-71
2021/05/29 01:22:39;;;;;;;13.70;9.40;;;;;;;8.03;100.00;96212.66;1034915;28;20747;-69
2021/05/29 01:23:10;;;;;;;12.43;9.35;;;;;;;8.02;100.00;96214.47;1040820;28;20098;-72
2021/05/29 01:23:40;;;;;;;10.88;7.80;;;;;;;8.02;100.00;96216.28;1043073;28;20855;-72
2021/05/29 01:24:11;;;;;;;11.50;7.78;;;;;;;8.02;100.00;96213.69;1041304;28;20454;-71
2021/05/29 01:24:41;;;;;;;11.85;7.63;;;;;;;8.02;100.00;96219.69;1034846;28;20403;-73
2021/05/29 01:25:22;;;;;;;8.65;7.63;;;;;;;8.01;100.00;96215.50;1030603;28;20030;-69
2021/05/29 01:25:53;;;;;;;10.27;6.72;;;;;;;8.03;100.00;96215.25;1033576;28;20034;-70
2021/05/29 01:26:23;;;;;;;9.00;6.82;;;;;;;7.98;100.00;96207.31;1030712;28;20269;-70
2021/05/29 01:26:54;;;;;;;12.15;6.70;;;;;;;8.06;100.00;96219.22;1032113;28;20038;-70
2021/05/29 01:27:24;;;;;;;8.77;5.95;;;;;;;8.08;100.00;96220.59;1034609;28;20420;-70
2021/05/29 01:27:59;;;;;;;9.65;6.57;;;;;;;8.09;100.00;96208.31;1034654;28;20097;-70
2021/05/29 01:28:31;;;;;;;8.85;7.53;;;;;;;8.08;100.00;96207.53;1031268;28;20058;-72
2021/05/29 01:29:01;;;;;;;9.95;6.82;;;;;;;8.02;100.00;96203.22;1034734;28;20750;-70
2021/05/29 01:29:33;;;;;;;8.13;7.25;;;;;;;8.01;100.00;96212.06;1031082;28;20280;-69
2021/05/29 01:30:05;;;;;;;9.15;7.43;;;;;;;8.07;100.00;96210.34;1031567;28;20035;-71
2021/05/29 01:31:01;;;;;;;12.55;8.30;;;;;;;8.03;100.00;96204.81;1038978;28;20743;-71
2021/05/29 01:31:33;;;;;;;8.77;6.47;;;;;;;8.03;100.00;96204.81;1023908;28;20272;-71
2021/05/29 01:32:06;;;;;;;7.47;5.97;;;;;;;8.11;100.00;96216.69;1030910;28;20269;-70
2021/05/29 01:32:39;;;;;;;9.40;7.18;;;;;;;8.04;100.00;96206.38;1034749;28;20280;-70
2021/05/29 01:33:11;;;;;;;7.25;6.18;;;;;;;8.12;100.00;96215.69;1040094;28;20374;-69
2021/05/29 01:33:41;;;;;;;6.80;5.72;;;;;;;8.10;100.00;96215.13;1038902;28;20275;-70
2021/05/29 01:34:12;;;;;;;6.75;5.47;;;;;;;8.16;100.00;96216.78;1030703;28;20282;-70
2021/05/29 01:34:43;;;;;;;7.20;5.72;;;;;;;8.17;100.00;96216.53;1030509;28;20030;-70
2021/05/29 01:35:16;;;;;;;9.27;5.82;;;;;;;8.12;100.00;96211.25;1034707;28;20260;-70
2021/05/29 01:35:47;;;;;;;7.75;5.38;;;;;;;8.12;100.00;96203.41;1031134;28;21005;-69
2021/05/29 01:36:17;;;;;;;7.40;5.93;;;;;;;8.20;100.00;96220.53;1029798;28;20427;-71
2021/05/29 01:36:48;;;;;;;6.35;5.35;;;;;;;8.12;100.00;96208.63;1030698;28;20676;-70
2021/05/29 01:37:18;;;;;;;8.38;5.30;;;;;;;8.19;100.00;96219.72;1030656;28;20504;-71
2021/05/29 01:37:49;;;;;;;6.60;5.35;;;;;;;8.20;100.00;96217.91;1022560;28;20114;-70
2021/05/29 01:38:23;;;;;;;6.47;5.32;;;;;;;8.09;100.00;96196.03;1030675;28;20046;-69
2021/05/29 01:38:53;;;;;;;6.60;5.80;;;;;;;8.17;100.00;96211.31;1038827;28;20116;-69
2021/05/29 01:39:24;;;;;;;10.63;5.95;;;;;;;8.17;100.00;96211.31;1039151;28;20276;-70
2021/05/29 01:39:54;;;;;;;7.40;5.72;;;;;;;8.17;100.00;96213.16;1042868;28;20036;-71
2021/05/29 01:40:25;;;;;;;6.95;5.20;;;;;;;8.17;100.00;96216.53;1038923;28;20029;-72
2021/05/29 01:41:11;;;;;;;6.07;5.47;;;;;;;8.17;100.00;96216.53;1038895;28;20037;-70
2021/05/29 01:41:42;;;;;;;7.35;6.10;;;;;;;8.07;100.00;96200.69;1034847;28;20030;-72
2021/05/29 01:42:12;;;;;;;7.95;5.88;;;;;;;8.17;100.00;96216.53;1034678;28;20268;-70
2021/05/29 01:42:43;;;;;;;7.70;6.28;;;;;;;8.08;100.00;96207.53;1032987;28;20034;-69
2021/05/29 01:43:14;;;;;;;6.78;5.95;;;;;;;8.14;100.00;96217.00;1029212;28;20534;-71
2021/05/29 01:43:46;;;;;;;7.00;6.30;;;;;;;8.16;100.00;96217.59;1027583;28;20277;-71
2021/05/29 01:44:16;;;;;;;9.77;6.82;;;;;;;8.14;100.00;96222.25;1026549;28;20040;-71
2021/05/29 01:44:47;;;;;;;8.15;5.93;;;;;;;8.12;100.00;96216.47;1027479;28;20710;-71
2021/05/29 01:45:17;;;;;;;8.10;5.70;;;;;;;8.11;100.00;96219.31;1030333;28;20030;-71
2021/05/29 01:45:48;;;;;;;8.38;5.88;;;;;;;8.11;100.00;96224.53;1029830;28;20042;-69
2021/05/29 01:46:20;;;;;;;8.05;5.78;;;;;;;8.12;100.00;96226.94;1029264;28;20146;-70
2021/05/29 01:46:51;;;;;;;6.47;5.72;;;;;;;8.06;100.00;96206.94;1026873;28;20305;-69
2021/05/29 01:47:21;;;;;;;6.20;5.45;;;;;;;8.01;100.00;96202.44;1026711;28;20262;-69
2021/05/29 01:47:55;;;;;;;7.80;5.78;;;;;;;8.11;100.00;96232.38;1028948;28;20273;-70
2021/05/29 01:48:32;;;;;;;7.35;5.90;;;;;;;7.99;100.00;96206.31;1030357;28;20037;-67
2021/05/29 01:49:02;;;;;;;7.75;5.50;;;;;;;8.08;100.00;96217.16;1031018;28;20289;-69
2021/05/29 01:49:36;;;;;;;7.47;5.63;;;;;;;8.10;100.00;96215.91;1034403;28;20277;-70
2021/05/29 01:50:06;;;;;;;10.52;5.82;;;;;;;8.03;100.00;96215.25;1040021;28;20065;-72
2021/05/29 01:50:46;;;;;;;6.63;5.60;;;;;;;7.76;100.00;96170.63;1034608;28;20284;-70
2021/05/29 01:51:17;;;;;;;8.02;6.25;;;;;;;8.09;100.00;96227.41;1034619;28;20515;-69
2021/05/29 01:51:48;;;;;;;6.50;5.80;;;;;;;8.07;100.00;96221.59;1038022;28;20276;-70
2021/05/29 01:52:18;;;;;;;6.55;5.70;;;;;;;8.05;100.00;96226.28;1034322;28;20312;-70
2021/05/29 01:52:57;;;;;;;8.02;5.95;;;;;;;8.04;100.00;96222.06;1030610;28;20038;-70
2021/05/29 01:53:28;;;;;;;8.02;5.32;;;;;;;7.99;100.00;96214.16;1033462;28;20112;-70
2021/05/29 01:53:58;;;;;;;7.30;5.53;;;;;;;8.03;100.00;96220.47;1039896;28;20264;-71
2021/05/29 01:54:32;;;;;;;6.05;5.38;;;;;;;7.99;100.00;96225.38;1038275;28;20483;-71
2021/05/29 01:55:03;;;;;;;7.55;5.78;;;;;;;7.97;100.00;96227.44;1037458;28;20032;-70
2021/05/29 01:55:33;;;;;;;5.68;5.10;;;;;;;7.96;100.00;96222.44;1034600;28;20288;-69
2021/05/29 01:56:04;;;;;;;6.38;5.47;;;;;;;7.95;100.00;96224.28;1034327;28;20038;-70
2021/05/29 01:56:34;;;;;;;6.30;5.10;;;;;;;7.90;100.00;96215.53;1030284;28;20038;-69
2021/05/29 01:57:05;;;;;;;10.45;5.93;;;;;;;7.94;100.00;96222.66;1038518;28;20380;-70
2021/05/29 01:57:36;;;;;;;7.28;5.10;;;;;;;7.94;100.00;96227.91;1034008;28;20026;-70
2021/05/29 01:58:06;;;;;;;6.32;5.50;;;;;;;7.94;100.00;96224.50;1032877;28;20044;-70
2021/05/29 01:58:40;;;;;;;5.78;5.18;;;;;;;7.92;100.00;96221.34;1037643;28;20032;-70
2021/05/29 01:59:10;;;;;;;6.45;5.35;;;;;;;7.94;100.00;96227.09;1034235;28;20438;-70
2021/05/29 01:59:41;;;;;;;10.57;5.95;;;;;;;7.83;100.00;96207.84;1034798;28;20260;-69
2021/05/29 02:00:12;;;;;;;5.65;5.15;;;;;;;7.87;100.00;96210.78;1036948;28;20049;-71
2021/05/29 02:00:42;;;;;;;5.80;5.07;;;;;;;7.94;100.00;96227.09;1038752;28;20033;-70
2021/05/29 02:01:14;;;;;;;5.65;5.05;;;;;;;7.94;100.00;96227.09;1030227;28;20277;-70
2021/05/29 02:01:44;;;;;;;7.47;5.40;;;;;;;7.95;100.00;96228.72;1030267;28;20030;-70
2021/05/29 02:02:14;;;;;;;5.90;5.35;;;;;;;7.96;100.00;96230.28;1030760;28;20276;-70
2021/05/29 02:02:45;;;;;;;7.18;5.05;;;;;;;7.95;100.00;96229.50;1030373;28;20045;-69
2021/05/29 02:03:15;;;;;;;5.43;4.93;;;;;;;7.96;100.00;96233.69;1038139;28;20025;-70
2021/05/29 02:03:46;;;;;;;5.22;4.72;;;;;;;7.95;100.00;96233.94;1038782;28;20717;-70
2021/05/29 02:04:16;;;;;;;5.65;5.15;;;;;;;7.96;100.00;96235.50;1034550;28;20042;-69
2021/05/29 02:04:47;;;;;;;6.22;5.20;;;;;;;7.96;100.00;96232.91;1040346;28;20076;-72
2021/05/29 02:05:27;;;;;;;7.30;5.40;;;;;;;7.92;100.00;96224.75;1039607;28;20064;-70
2021/05/29 02:05:58;;;;;;;5.97;5.35;;;;;;;7.96;100.00;96232.91;1042880;28;20040;-71
2021/05/29 02:06:28;;;;;;;10.88;5.13;;;;;;;7.95;100.00;96226.09;1038617;28;20378;-71
2021/05/29 02:06:59;;;;;;;5.68;5.10;;;;;;;7.99;100.00;96229.81;1034111;28;20102;-70
2021/05/29 02:07:29;;;;;;;5.82;5.15;;;;;;;7.95;100.00;96224.28;1030533;28;20030;-70
2021/05/29 02:08:00;;;;;;;6.38;5.13;;;;;;;7.93;100.00;96220.31;1026628;28;20784;-71
2021/05/29 02:08:31;;;;;;;6.57;5.47;;;;;;;7.99;100.00;96224.59;1030153;28;20034;-70
2021/05/29 02:09:01;;;;;;;8.15;5.22;;;;;;;7.93;100.00;96215.06;1034834;28;20301;-70
2021/05/29 02:09:32;;;;;;;5.68;4.50;;;;;;;7.98;100.00;96229.03;1035287;28;20025;-70
2021/05/29 02:10:03;;;;;;;5.70;5.05;;;;;;;7.98;100.00;96226.41;1035393;28;20042;-70
2021/05/29 02:10:34;;;;;;;5.28;4.78;;;;;;;7.97;100.00;96222.19;1037554;28;20060;-70
2021/05/29 02:11:05;;;;;;;6.43;5.15;;;;;;;7.99;100.00;96229.81;1031212;28;20372;-70
2021/05/29 02:11:36;;;;;;;5.28;4.75;;;;;;;7.98;100.00;96223.81;1031656;28;20292;-71
2021/05/29 02:12:07;;;;;;;6.30;5.28;;;;;;;7.95;100.00;96216.44;1032163;28;20399;-70
2021/05/29 02:12:39;;;;;;;8.30;5.68;;;;;;;7.99;100.00;96219.38;1031331;28;20698;-71
2021/05/29 02:13:11;;;;;;;6.38;5.57;;;;;;;7.99;100.00;96224.59;1031300;28;20313;-72
2021/05/29 02:13:42;;;;;;;7.13;4.95;;;;;;;7.99;100.00;96219.38;1036950;28;20279;-70
2021/05/29 02:14:12;;;;;;;9.07;5.78;;;;;;;8.01;100.00;96219.91;1031011;28;20403;-72
2021/05/29 02:14:43;;;;;;;10.65;5.95;;;;;;;7.94;100.00;96211.44;1028852;28;20027;-71
2021/05/29 02:15:19;;;;;;;6.82;5.22;;;;;;;8.01;100.00;96218.13;1030055;28;20034;-72
2021/05/29 02:15:49;;;;;;;6.68;5.60;;;;;;;7.92;100.00;96203.03;1036976;28;20026;-71
2021/05/29 02:16:20;;;;;;;6.60;5.32;;;;;;;7.99;100.00;96219.38;1034576;28;21422;-71
2021/05/29 02:16:50;;;;;;;7.65;5.28;;;;;;;7.98;100.00;96213.34;1035940;28;20029;-72
2021/05/29 02:17:20;;;;;;;6.95;5.43;;;;;;;7.98;100.00;96209.94;1038788;28;20549;-71
2021/05/29 02:17:52;;;;;;;7.68;5.30;;;;;;;7.92;100.00;96206.44;1039252;28;20376;-72
2021/05/29 02:18:23;;;;;;;5.85;5.03;;;;;;;7.98;100.00;96207.31;1039377;28;20010;-71
2021/05/29 02:18:53;;;;;;;6.00;5.40;;;;;;;7.99;100.00;96208.91;1037706;28;20300;-71
2021/05/29 02:19:24;;;;;;;6.10;5.13;;;;;;;7.97;100.00;96206.53;1039134;28;20518;-71
2021/05/29 02:19:54;;;;;;;7.63;5.32;;;;;;;7.97;100.00;96213.56;1035098;28;20387;-72
2021/05/29 02:20:46;;;;;;;5.60;5.03;;;;;;;7.98;100.00;96209.94;1036282;28;20057;-71
2021/05/29 02:21:16;;;;;;;7.93;5.47;;;;;;;7.94;100.00;96209.59;1043185;28;20687;-72
2021/05/29 02:21:47;;;;;;;6.85;5.50;;;;;;;7.94;100.00;96217.44;1043289;28;20270;-71
2021/05/29 02:22:17;;;;;;;7.18;5.55;;;;;;;7.93;100.00;96217.69;1040169;28;20449;-71
2021/05/29 02:22:48;;;;;;;8.00;4.70;;;;;;;7.93;100.00;96215.88;1039354;28;20025;-71
2021/05/29 02:23:26;;;;;;;6.90;5.10;;;;;;;7.93;100.00;96221.09;1039155;28;20029;-71
2021/05/29 02:23:57;;;;;;;5.97;5.20;;;;;;;7.93;100.00;96217.69;1036200;28;20028;-71
2021/05/29 02:24:27;;;;;;;5.65;5.00;;;;;;;7.93;100.00;96220.31;1035195;28;20861;-71
2021/05/29 02:24:57;;;;;;;10.57;5.80;;;;;;;7.91;100.00;96209.28;1031232;28;20045;-72
2021/05/29 02:25:28;;;;;;;5.75;4.97;;;;;;;7.95;100.00;96215.66;1027009;28;20022;-71
2021/05/29 02:26:02;;;;;;;5.47;4.97;;;;;;;7.89;100.00;96213.97;1025828;28;20570;-72
2021/05/29 02:26:33;;;;;;;6.32;4.78;;;;;;;7.93;100.00;96215.06;1027171;28;20027;-71
2021/05/29 02:27:03;;;;;;;5.57;4.93;;;;;;;7.92;100.00;96208.28;1031255;28;20336;-72
2021/05/29 02:27:34;;;;;;;6.63;5.25;;;;;;;7.89;100.00;96208.72;1035084;28;20026;-71
2021/05/29 02:28:04;;;;;;;6.80;5.28;;;;;;;7.87;100.00;96205.56;1034509;28;20099;-71